Time;durP1;ratioP1;P1;durP2;ratioP2;P2;SDS_P1;SDS_P2;PMS_P1;PMS_P2;Temp;Humidity;BMP_temperature;BMP_pressure;BME280_temperature;BME280_humidity;BME280_pressure;Samples;Min_cycle;Max_cycle;Signal;HPM_P1;HPM_P2
2023/07/09 00:01:14;;;;;;;2.00;1.90;;;;;;;;;;5014054;28;20291;-53
2023/07/09 00:03:40;;;;;;;1.80;1.70;;;;;;;;;;5009792;28;20192;-53
2023/07/09 00:06:08;;;;;;;2.00;1.67;;;;;;;;;;5014157;28;20239;-53
2023/07/09 00:08:34;;;;;;;1.77;1.60;;;;;;;;;;5013591;28;20298;-54
2023/07/09 00:11:00;;;;;;;2.15;1.95;;;;;;;;;;5013963;28;20227;-53
2023/07/09 00:13:27;;;;;;;2.08;1.88;;;;;;;;;;5014476;28;20178;-53
2023/07/09 00:15:54;;;;;;;2.10;1.80;;;;;;;;;;5015131;28;20267;-53
2023/07/09 00:18:20;;;;;;;3.28;1.88;;;;;;;;;;5017505;28;20194;-53
2023/07/09 00:20:48;;;;;;;2.30;2.10;;;;;;;;;;5018167;28;20259;-53
2023/07/09 00:23:13;;;;;;;2.08;1.88;;;;;;;;;;5016871;28;20215;-53
2023/07/09 00:25:46;;;;;;;2.53;2.00;;;;;;;;;;5018185;28;20524;-53
2023/07/09 00:28:16;;;;;;;2.80;2.22;;;;;;;;;;5017047;28;20211;-53
2023/07/09 00:30:42;;;;;;;1.90;1.70;;;;;;;;;;5000986;28;20193;-53
2023/07/09 00:33:14;;;;;;;2.00;1.80;;;;;;;;;;5017959;28;20229;-54
2023/07/09 00:35:40;;;;;;;2.08;1.88;;;;;;;;;;5018196;28;20184;-54
2023/07/09 00:38:05;;;;;;;1.80;1.70;;;;;;;;;;5016332;28;20230;-54
2023/07/09 00:40:31;;;;;;;2.53;2.08;;;;;;;;;;5017226;28;20196;-54
2023/07/09 00:43:00;;;;;;;1.83;1.73;;;;;;;;;;5017848;28;20199;-54
2023/07/09 00:45:27;;;;;;;2.97;1.75;;;;;;;;;;5017575;28;20185;-54
2023/07/09 00:47:58;;;;;;;1.75;1.65;;;;;;;;;;5016774;28;20258;-53
2023/07/09 00:50:33;;;;;;;2.38;2.05;;;;;;;;;;5000415;28;20181;-54
2023/07/09 00:53:07;;;;;;;1.98;1.77;;;;;;;;;;5017223;28;20200;-54
2023/07/09 00:55:33;;;;;;;1.90;1.80;;;;;;;;;;5017367;28;20196;-53
2023/07/09 00:58:02;;;;;;;2.13;2.00;;;;;;;;;;5016973;28;20263;-53
2023/07/09 01:00:31;;;;;;;2.47;2.15;;;;;;;;;;5017291;28;20181;-54
2023/07/09 01:02:58;;;;;;;2.45;2.25;;;;;;;;;;5017413;28;20298;-53
2023/07/09 01:05:25;;;;;;;2.05;1.88;;;;;;;;;;5017081;28;20204;-53
2023/07/09 01:07:53;;;;;;;2.53;2.17;;;;;;;;;;5016605;28;20208;-54
2023/07/09 01:10:20;;;;;;;2.13;1.92;;;;;;;;;;5017276;28;20161;-54
2023/07/09 01:12:46;;;;;;;2.40;2.20;;;;;;;;;;5017446;28;20177;-54
2023/07/09 01:15:15;;;;;;;2.10;1.95;;;;;;;;;;5017208;28;20195;-53
2023/07/09 01:17:44;;;;;;;1.80;1.70;;;;;;;;;;5016684;28;20177;-53
2023/07/09 01:20:14;;;;;;;2.22;2.03;;;;;;;;;;5016553;28;20626;-53
2023/07/09 01:22:40;;;;;;;2.00;1.80;;;;;;;;;;5016990;28;20231;-53
2023/07/09 01:25:07;;;;;;;2.72;1.80;;;;;;;;;;5017025;28;20212;-53
2023/07/09 01:27:38;;;;;;;2.17;2.03;;;;;;;;;;5015270;28;20204;-53
2023/07/09 01:30:06;;;;;;;2.17;1.98;;;;;;;;;;5017273;28;20230;-53
2023/07/09 01:32:33;;;;;;;2.03;1.90;;;;;;;;;;5016678;28;20260;-53
2023/07/09 01:35:04;;;;;;;2.33;1.88;;;;;;;;;;5016960;28;20560;-53
2023/07/09 01:37:31;;;;;;;1.90;1.63;;;;;;;;;;5016188;28;20219;-54
2023/07/09 01:39:57;;;;;;;2.03;1.90;;;;;;;;;;5016332;28;20216;-53
2023/07/09 01:42:24;;;;;;;2.65;2.15;;;;;;;;;;5016020;28;20193;-53
2023/07/09 01:44:52;;;;;;;1.92;1.83;;;;;;;;;;5016313;28;20214;-53
2023/07/09 01:47:18;;;;;;;2.13;2.00;;;;;;;;;;5015805;28;20479;-53
2023/07/09 01:49:46;;;;;;;2.83;2.40;;;;;;;;;;5016616;28;20188;-53
2023/07/09 01:52:13;;;;;;;2.42;2.22;;;;;;;;;;5016285;28;20172;-53
2023/07/09 01:54:39;;;;;;;1.90;1.80;;;;;;;;;;5016515;28;20238;-53
2023/07/09 01:57:19;;;;;;;1.80;1.70;;;;;;;;;;5015736;28;20544;-53
2023/07/09 01:59:45;;;;;;;2.13;1.92;;;;;;;;;;5015706;28;20184;-53
2023/07/09 02:02:18;;;;;;;2.10;1.90;;;;;;;;;;5015962;28;20566;-53
2023/07/09 02:04:45;;;;;;;2.25;2.05;;;;;;;;;;5016139;28;20184;-53
2023/07/09 02:07:11;;;;;;;2.22;2.03;;;;;;;;;;5016258;28;20223;-53
2023/07/09 02:09:37;;;;;;;1.92;1.83;;;;;;;;;;5015316;28;20176;-53
2023/07/09 02:12:03;;;;;;;2.72;2.13;;;;;;;;;;5016144;28;20184;-53
2023/07/09 02:14:29;;;;;;;2.30;2.10;;;;;;;;;;5015976;28;20172;-53
2023/07/09 02:16:55;;;;;;;2.47;2.05;;;;;;;;;;5015637;28;20954;-53
2023/07/09 02:19:21;;;;;;;2.58;2.30;;;;;;;;;;5015089;28;20181;-53
2023/07/09 02:21:47;;;;;;;2.10;1.90;;;;;;;;;;5015677;28;20192;-53
2023/07/09 02:24:12;;;;;;;1.98;1.80;;;;;;;;;;5015398;28;20235;-54
2023/07/09 02:26:38;;;;;;;2.50;2.30;;;;;;;;;;5015646;28;20212;-54
2023/07/09 02:29:04;;;;;;;2.28;2.00;;;;;;;;;;5015147;28;20184;-54
2023/07/09 02:31:30;;;;;;;2.28;2.08;;;;;;;;;;5015642;28;20169;-54
2023/07/09 02:33:57;;;;;;;2.05;1.85;;;;;;;;;;5015731;28;20180;-54
2023/07/09 02:36:24;;;;;;;2.50;2.08;;;;;;;;;;5015326;28;20196;-54
2023/07/09 02:38:50;;;;;;;2.30;2.10;;;;;;;;;;5013972;28;20219;-54
2023/07/09 02:41:16;;;;;;;2.40;2.20;;;;;;;;;;5015559;28;20188;-54
2023/07/09 02:43:42;;;;;;;2.38;1.92;;;;;;;;;;5014607;28;20184;-53
2023/07/09 02:46:08;;;;;;;2.72;2.22;;;;;;;;;;4990166;28;20184;-53
2023/07/09 02:48:34;;;;;;;2.38;2.17;;;;;;;;;;5014482;28;20212;-53
2023/07/09 02:51:00;;;;;;;2.20;2.00;;;;;;;;;;5015202;28;20192;-53
2023/07/09 02:53:26;;;;;;;2.08;1.90;;;;;;;;;;5015103;28;20208;-53
2023/07/09 02:55:52;;;;;;;2.25;2.05;;;;;;;;;;5015303;28;20187;-54
2023/07/09 02:58:18;;;;;;;2.40;2.20;;;;;;;;;;5014617;28;20259;-54
2023/07/09 03:00:45;;;;;;;2.30;2.10;;;;;;;;;;5015112;28;20189;-54
2023/07/09 03:03:11;;;;;;;2.22;2.03;;;;;;;;;;5014595;28;20215;-54
2023/07/09 03:05:37;;;;;;;2.70;2.40;;;;;;;;;;5015270;28;20188;-54
2023/07/09 03:08:03;;;;;;;2.10;1.90;;;;;;;;;;5014453;28;20248;-53
2023/07/09 03:10:29;;;;;;;2.28;2.08;;;;;;;;;;5015187;28;20181;-53
2023/07/09 03:12:55;;;;;;;2.50;2.30;;;;;;;;;;5015296;28;20231;-53
2023/07/09 03:15:21;;;;;;;2.20;2.00;;;;;;;;;;5014705;28;20176;-54
2023/07/09 03:17:47;;;;;;;2.40;2.20;;;;;;;;;;5014030;28;20207;-54
2023/07/09 03:20:13;;;;;;;2.30;2.10;;;;;;;;;;5014977;28;20184;-54
2023/07/09 03:22:39;;;;;;;2.63;2.28;;;;;;;;;;5014696;28;20196;-54
2023/07/09 03:25:05;;;;;;;2.45;2.25;;;;;;;;;;5015072;28;20236;-53
2023/07/09 03:27:31;;;;;;;2.10;2.00;;;;;;;;;;5014061;28;20283;-53
2023/07/09 03:29:57;;;;;;;3.17;2.10;;;;;;;;;;5014837;28;20318;-53
2023/07/09 03:32:22;;;;;;;3.10;2.42;;;;;;;;;;5014796;28;20251;-53
2023/07/09 03:34:48;;;;;;;2.28;2.08;;;;;;;;;;5014689;28;20187;-53
2023/07/09 03:37:15;;;;;;;2.42;2.20;;;;;;;;;;5013407;28;20207;-53
2023/07/09 03:39:40;;;;;;;2.42;2.13;;;;;;;;;;5014235;28;20207;-53
2023/07/09 03:42:06;;;;;;;2.58;2.38;;;;;;;;;;5014853;28;20184;-53
2023/07/09 03:44:32;;;;;;;2.40;2.20;;;;;;;;;;5013901;28;20254;-53
2023/07/09 03:46:58;;;;;;;2.00;1.90;;;;;;;;;;5014264;28;20330;-53
2023/07/09 03:49:24;;;;;;;2.13;1.98;;;;;;;;;;5013792;28;20476;-53
2023/07/09 03:51:50;;;;;;;3.05;2.20;;;;;;;;;;5013614;28;20176;-53
2023/07/09 03:54:16;;;;;;;2.13;1.90;;;;;;;;;;5014466;28;20635;-53
2023/07/09 03:56:42;;;;;;;2.03;1.90;;;;;;;;;;5014393;28;20188;-53
2023/07/09 03:59:08;;;;;;;3.70;1.98;;;;;;;;;;5013561;28;20187;-53
2023/07/09 04:01:34;;;;;;;2.00;1.90;;;;;;;;;;5014497;28;20242;-53
2023/07/09 04:04:00;;;;;;;2.20;2.00;;;;;;;;;;5013979;28;20185;-53
2023/07/09 04:06:26;;;;;;;2.28;2.08;;;;;;;;;;5014279;28;20184;-53
2023/07/09 04:08:51;;;;;;;2.28;2.00;;;;;;;;;;5013879;28;20471;-53
2023/07/09 04:11:17;;;;;;;2.15;1.90;;;;;;;;;;5014158;28;20176;-53
2023/07/09 04:13:43;;;;;;;2.13;1.92;;;;;;;;;;5014096;28;20173;-53
2023/07/09 04:16:10;;;;;;;2.10;1.90;;;;;;;;;;5014267;28;20211;-53
2023/07/09 04:18:36;;;;;;;2.10;1.90;;;;;;;;;;5013486;28;20516;-54
2023/07/09 04:21:02;;;;;;;2.67;2.30;;;;;;;;;;5014382;28;20195;-54
2023/07/09 04:23:28;;;;;;;2.55;2.35;;;;;;;;;;5013952;28;20196;-53
2023/07/09 04:25:54;;;;;;;2.47;2.15;;;;;;;;;;5013945;28;20422;-54
2023/07/09 04:28:20;;;;;;;2.20;2.00;;;;;;;;;;5012939;28;20215;-54
2023/07/09 04:30:47;;;;;;;2.17;1.98;;;;;;;;;;5013928;28;20435;-54
2023/07/09 04:33:17;;;;;;;2.22;2.03;;;;;;;;;;5014120;28;20184;-54
2023/07/09 04:35:43;;;;;;;2.30;2.10;;;;;;;;;;5014109;28;20215;-53
2023/07/09 04:38:09;;;;;;;2.50;2.30;;;;;;;;;;5012476;28;20265;-53
2023/07/09 04:40:35;;;;;;;2.53;2.33;;;;;;;;;;5013815;28;20859;-53
2023/07/09 04:43:01;;;;;;;2.08;1.88;;;;;;;;;;5013760;28;20195;-54
2023/07/09 04:45:27;;;;;;;2.03;1.88;;;;;;;;;;5014131;28;20263;-54
2023/07/09 04:47:53;;;;;;;2.20;1.75;;;;;;;;;;5013185;28;20299;-53
2023/07/09 04:50:19;;;;;;;2.15;1.95;;;;;;;;;;5013953;28;20207;-53
2023/07/09 04:52:45;;;;;;;3.33;2.08;;;;;;;;;;5013566;28;20169;-54
2023/07/09 04:55:11;;;;;;;2.20;2.00;;;;;;;;;;5013846;28;20188;-53
2023/07/09 04:57:37;;;;;;;2.30;2.10;;;;;;;;;;5013398;28;20271;-53
2023/07/09 05:00:07;;;;;;;2.25;1.83;;;;;;;;;;5013568;28;20188;-53
2023/07/09 05:02:33;;;;;;;2.05;1.90;;;;;;;;;;5015453;28;20243;-53
2023/07/09 05:04:59;;;;;;;2.25;2.05;;;;;;;;;;5017397;28;20195;-53
2023/07/09 05:07:25;;;;;;;2.20;2.00;;;;;;;;;;5016544;28;20185;-53
2023/07/09 05:09:51;;;;;;;2.10;1.80;;;;;;;;;;5017137;28;20184;-53
2023/07/09 05:12:17;;;;;;;1.92;1.80;;;;;;;;;;5017569;28;20192;-53
2023/07/09 05:14:43;;;;;;;2.35;2.15;;;;;;;;;;5017123;28;20229;-54
2023/07/09 05:17:09;;;;;;;2.42;2.22;;;;;;;;;;5017366;28;20259;-54
2023/07/09 05:19:35;;;;;;;2.22;2.03;;;;;;;;;;5016516;28;20184;-54
2023/07/09 05:22:01;;;;;;;2.15;1.95;;;;;;;;;;5016802;28;20193;-54
2023/07/09 05:24:27;;;;;;;1.83;1.73;;;;;;;;;;5016795;28;20397;-53
2023/07/09 05:26:53;;;;;;;2.22;2.03;;;;;;;;;;5017042;28;20267;-53
2023/07/09 05:29:19;;;;;;;2.13;1.92;;;;;;;;;;5016246;28;20177;-53
2023/07/09 05:31:45;;;;;;;2.17;2.00;;;;;;;;;;5017040;28;20195;-53
2023/07/09 05:34:11;;;;;;;2.78;2.20;;;;;;;;;;5016875;28;20173;-53
2023/07/09 05:36:37;;;;;;;2.05;1.95;;;;;;;;;;5015852;28;21446;-53
2023/07/09 05:39:03;;;;;;;2.30;2.08;;;;;;;;;;5015315;28;20189;-53
2023/07/09 05:41:29;;;;;;;2.05;1.90;;;;;;;;;;5016658;28;20199;-53
2023/07/09 05:43:55;;;;;;;2.53;2.17;;;;;;;;;;5016504;28;20185;-53
2023/07/09 05:46:22;;;;;;;3.08;1.80;;;;;;;;;;5016266;28;20189;-54
2023/07/09 05:48:48;;;;;;;2.05;1.95;;;;;;;;;;5016217;28;20203;-54
2023/07/09 05:51:14;;;;;;;2.45;2.25;;;;;;;;;;5015932;28;20180;-53
2023/07/09 05:53:40;;;;;;;2.38;2.13;;;;;;;;;;5016076;28;20191;-53
2023/07/09 05:56:07;;;;;;;3.08;2.30;;;;;;;;;;5016343;28;20177;-53
2023/07/09 05:58:33;;;;;;;2.10;1.95;;;;;;;;;;5016000;28;20185;-54
2023/07/09 06:00:58;;;;;;;2.33;2.13;;;;;;;;;;5016026;28;20165;-54
2023/07/09 06:03:25;;;;;;;1.98;1.88;;;;;;;;;;5015905;28;20988;-54
2023/07/09 06:05:52;;;;;;;2.20;2.00;;;;;;;;;;5016164;28;20204;-54
2023/07/09 06:08:18;;;;;;;2.63;2.42;;;;;;;;;;5015471;28;20314;-54
2023/07/09 06:10:51;;;;;;;2.20;2.00;;;;;;;;;;4999120;28;20642;-54
2023/07/09 06:13:18;;;;;;;2.58;2.33;;;;;;;;;;5015469;28;20264;-53
2023/07/09 06:15:44;;;;;;;2.20;2.00;;;;;;;;;;5015969;28;20219;-54
2023/07/09 06:18:10;;;;;;;2.40;2.20;;;;;;;;;;5015479;28;20180;-54
2023/07/09 06:20:35;;;;;;;2.35;1.90;;;;;;;;;;5015764;28;20189;-53
2023/07/09 06:23:02;;;;;;;2.20;2.00;;;;;;;;;;5015473;28;20196;-53
2023/07/09 06:25:28;;;;;;;2.20;2.00;;;;;;;;;;5015744;28;20180;-53
2023/07/09 06:27:54;;;;;;;2.28;2.08;;;;;;;;;;5015390;28;20215;-53
2023/07/09 06:30:19;;;;;;;2.40;2.20;;;;;;;;;;5015156;28;20438;-53
2023/07/09 06:32:46;;;;;;;2.00;1.90;;;;;;;;;;5015881;28;20184;-53
2023/07/09 06:35:11;;;;;;;2.17;1.98;;;;;;;;;;5015598;28;20181;-53
2023/07/09 06:37:37;;;;;;;2.13;1.92;;;;;;;;;;5014786;28;20271;-53
2023/07/09 06:40:07;;;;;;;2.10;1.90;;;;;;;;;;5014542;28;20463;-53
2023/07/09 06:42:33;;;;;;;2.20;1.70;;;;;;;;;;5014989;28;20239;-53
2023/07/09 06:44:59;;;;;;;2.20;2.00;;;;;;;;;;5015471;28;20180;-54
2023/07/09 06:47:24;;;;;;;2.47;2.20;;;;;;;;;;5014588;28;20219;-53
2023/07/09 06:49:50;;;;;;;1.77;1.67;;;;;;;;;;5015143;28;20183;-54
2023/07/09 06:52:16;;;;;;;1.83;1.73;;;;;;;;;;4998010;28;20239;-54
2023/07/09 06:54:42;;;;;;;1.80;1.70;;;;;;;;;;5015578;28;20172;-54
2023/07/09 06:57:08;;;;;;;2.10;1.90;;;;;;;;;;5014757;28;20176;-54
2023/07/09 06:59:34;;;;;;;2.17;1.98;;;;;;;;;;5014929;28;20212;-54
2023/07/09 07:02:00;;;;;;;2.03;1.80;;;;;;;;;;5014569;28;20217;-53
2023/07/09 07:04:27;;;;;;;2.00;1.80;;;;;;;;;;5015290;28;20618;-53
2023/07/09 07:06:55;;;;;;;1.80;1.70;;;;;;;;;;5015228;28;20164;-53
2023/07/09 07:09:21;;;;;;;1.92;1.83;;;;;;;;;;5014632;28;20176;-53
2023/07/09 07:11:47;;;;;;;1.90;1.80;;;;;;;;;;5015077;28;20168;-53
2023/07/09 07:14:13;;;;;;;1.60;1.50;;;;;;;;;;5015058;28;20463;-53
2023/07/09 07:16:39;;;;;;;1.80;1.70;;;;;;;;;;5014912;28;20611;-53
2023/07/09 07:19:05;;;;;;;1.65;1.55;;;;;;;;;;5014214;28;20188;-53
2023/07/09 07:21:31;;;;;;;1.90;1.80;;;;;;;;;;5014778;28;20172;-53
2023/07/09 07:23:57;;;;;;;1.92;1.80;;;;;;;;;;5014566;28;20179;-53
2023/07/09 07:26:23;;;;;;;1.90;1.80;;;;;;;;;;5014696;28;20267;-54
2023/07/09 07:28:50;;;;;;;1.83;1.73;;;;;;;;;;5014642;28;20216;-53
2023/07/09 07:31:17;;;;;;;1.83;1.73;;;;;;;;;;5014356;28;20239;-54
2023/07/09 07:33:43;;;;;;;1.70;1.58;;;;;;;;;;5014945;28;20532;-54
2023/07/09 07:36:09;;;;;;;1.83;1.73;;;;;;;;;;5014829;28;20570;-53
2023/07/09 07:38:35;;;;;;;1.65;1.55;;;;;;;;;;5013013;28;20194;-54
2023/07/09 07:41:01;;;;;;;2.17;1.98;;;;;;;;;;5014722;28;20188;-54
2023/07/09 07:43:27;;;;;;;1.80;1.70;;;;;;;;;;5014551;28;20254;-54
2023/07/09 07:45:53;;;;;;;1.85;1.75;;;;;;;;;;5014331;28;20492;-54
2023/07/09 07:48:19;;;;;;;1.83;1.73;;;;;;;;;;5013726;28;20212;-53
2023/07/09 07:50:47;;;;;;;1.70;1.60;;;;;;;;;;5014198;28;20230;-54
2023/07/09 07:53:14;;;;;;;1.58;1.40;;;;;;;;;;5014093;28;20247;-55
2023/07/09 07:55:40;;;;;;;1.70;1.60;;;;;;;;;;5014574;28;20183;-54
2023/07/09 07:58:07;;;;;;;1.90;1.80;;;;;;;;;;5014015;28;20184;-54
2023/07/09 08:00:33;;;;;;;1.80;1.70;;;;;;;;;;5014136;28;20188;-53
2023/07/09 08:02:59;;;;;;;1.65;1.55;;;;;;;;;;5014112;28;20203;-54
2023/07/09 08:05:25;;;;;;;1.80;1.70;;;;;;;;;;5014127;28;20215;-54
2023/07/09 08:07:51;;;;;;;1.67;1.58;;;;;;;;;;5013888;28;20200;-54
2023/07/09 08:10:16;;;;;;;1.52;1.42;;;;;;;;;;5014298;28;20551;-54
2023/07/09 08:12:42;;;;;;;1.98;1.80;;;;;;;;;;5014135;28;20184;-54
2023/07/09 08:15:08;;;;;;;1.85;1.65;;;;;;;;;;5013930;28;20187;-54
2023/07/09 08:17:34;;;;;;;2.03;1.83;;;;;;;;;;5013468;28;21061;-53
2023/07/09 08:20:00;;;;;;;2.10;2.00;;;;;;;;;;4996825;28;20211;-53
2023/07/09 08:22:26;;;;;;;1.70;1.60;;;;;;;;;;5013385;28;20242;-53
2023/07/09 08:24:52;;;;;;;1.50;1.40;;;;;;;;;;5014250;28;20184;-54
2023/07/09 08:27:19;;;;;;;1.80;1.60;;;;;;;;;;5013961;28;20215;-54
2023/07/09 08:29:45;;;;;;;1.60;1.50;;;;;;;;;;5013844;28;20584;-54
2023/07/09 08:32:12;;;;;;;1.80;1.70;;;;;;;;;;5013998;28;20192;-54
2023/07/09 08:34:41;;;;;;;1.63;1.52;;;;;;;;;;5013470;28;20192;-54
2023/07/09 08:37:09;;;;;;;1.60;1.50;;;;;;;;;;5015543;28;20180;-54
2023/07/09 08:39:36;;;;;;;1.67;1.55;;;;;;;;;;5016446;28;20188;-54
2023/07/09 08:42:01;;;;;;;1.73;1.63;;;;;;;;;;5017969;28;20169;-54
2023/07/09 08:44:46;;;;;;;1.65;1.55;;;;;;;;;;5016620;28;20275;-54
2023/07/09 08:47:31;;;;;;;1.58;1.48;;;;;;;;;;5017585;28;20598;-53
2023/07/09 08:50:05;;;;;;;1.60;1.50;;;;;;;;;;5017397;28;20275;-53
2023/07/09 08:52:36;;;;;;;1.83;1.45;;;;;;;;;;5017484;28;20222;-53
2023/07/09 08:55:04;;;;;;;1.70;1.60;;;;;;;;;;5016655;28;20184;-53
2023/07/09 08:57:35;;;;;;;1.73;1.63;;;;;;;;;;5016007;28;20176;-53
2023/07/09 09:00:03;;;;;;;1.98;1.88;;;;;;;;;;5017388;28;20195;-54
2023/07/09 09:02:47;;;;;;;1.88;1.75;;;;;;;;;;5017197;28;20195;-53
2023/07/09 09:05:17;;;;;;;2.00;1.90;;;;;;;;;;5017240;28;20533;-53
2023/07/09 09:07:44;;;;;;;1.50;1.40;;;;;;;;;;5016836;28;20785;-53
2023/07/09 09:10:15;;;;;;;1.60;1.50;;;;;;;;;;5017254;28;20172;-53
2023/07/09 09:12:49;;;;;;;1.65;1.55;;;;;;;;;;5017104;28;20208;-53
2023/07/09 09:15:17;;;;;;;1.38;1.27;;;;;;;;;;5017439;28;20202;-53
2023/07/09 09:17:43;;;;;;;1.77;1.67;;;;;;;;;;5016474;28;20294;-54
2023/07/09 09:20:11;;;;;;;1.55;1.45;;;;;;;;;;5017301;28;20272;-53
2023/07/09 09:22:42;;;;;;;1.50;1.40;;;;;;;;;;5016817;28;20748;-54
2023/07/09 09:25:11;;;;;;;1.83;1.50;;;;;;;;;;5017013;28;20234;-54
2023/07/09 09:27:38;;;;;;;1.67;1.58;;;;;;;;;;5016474;28;20219;-54
2023/07/09 09:30:04;;;;;;;1.65;1.55;;;;;;;;;;5017288;28;20175;-53
2023/07/09 09:32:31;;;;;;;1.60;1.25;;;;;;;;;;5016490;28;20176;-54
2023/07/09 09:34:57;;;;;;;1.73;1.63;;;;;;;;;;5017070;28;20768;-54
2023/07/09 09:37:26;;;;;;;1.50;1.40;;;;;;;;;;5016758;28;20567;-53
2023/07/09 09:39:52;;;;;;;1.73;1.63;;;;;;;;;;5015899;28;20442;-54
2023/07/09 09:42:18;;;;;;;1.70;1.60;;;;;;;;;;5001965;28;20176;-53
2023/07/09 09:44:45;;;;;;;1.70;1.60;;;;;;;;;;5016039;28;20235;-53
2023/07/09 09:47:11;;;;;;;2.17;1.70;;;;;;;;;;5016347;28;20588;-54
2023/07/09 09:49:41;;;;;;;1.70;1.60;;;;;;;;;;5014881;28;20181;-54
2023/07/09 09:52:13;;;;;;;1.60;1.50;;;;;;;;;;5016832;28;20444;-54
2023/07/09 09:54:40;;;;;;;1.50;1.40;;;;;;;;;;5016027;28;20195;-54
2023/07/09 09:57:16;;;;;;;1.67;1.58;;;;;;;;;;5016183;28;20406;-54
2023/07/09 09:59:42;;;;;;;1.50;1.40;;;;;;;;;;5016185;28;20186;-53
2023/07/09 10:02:16;;;;;;;1.40;1.30;;;;;;;;;;5016469;28;20188;-53
2023/07/09 10:04:42;;;;;;;1.67;1.58;;;;;;;;;;5015967;28;20231;-54
2023/07/09 10:07:08;;;;;;;1.33;1.23;;;;;;;;;;5016366;28;20526;-54
2023/07/09 10:09:40;;;;;;;1.50;1.40;;;;;;;;;;5015620;28;20253;-54
2023/07/09 10:12:13;;;;;;;1.35;1.25;;;;;;;;;;5016431;28;20173;-54
2023/07/09 10:14:45;;;;;;;1.73;1.63;;;;;;;;;;5015614;28;20177;-54
2023/07/09 10:17:21;;;;;;;1.67;1.58;;;;;;;;;;5015764;28;20183;-54
2023/07/09 10:20:06;;;;;;;1.77;1.60;;;;;;;;;;5015742;28;20198;-54
2023/07/09 10:22:38;;;;;;;1.40;1.30;;;;;;;;;;5015773;28;20494;-54
2023/07/09 10:25:13;;;;;;;1.45;1.35;;;;;;;;;;5015857;28;20582;-54
2023/07/09 10:27:49;;;;;;;1.40;1.30;;;;;;;;;;5015016;28;20290;-54
2023/07/09 10:30:24;;;;;;;1.30;1.20;;;;;;;;;;5010240;28;20259;-54
2023/07/09 10:32:58;;;;;;;1.42;1.33;;;;;;;;;;5015698;28;20192;-54
2023/07/09 10:35:27;;;;;;;1.50;1.40;;;;;;;;;;5014592;28;20252;-54
2023/07/09 10:38:08;;;;;;;1.40;1.30;;;;;;;;;;5014809;28;20188;-54
2023/07/09 10:40:38;;;;;;;1.52;1.42;;;;;;;;;;5015848;28;20200;-54
2023/07/09 10:43:06;;;;;;;1.40;1.30;;;;;;;;;;5015713;28;20176;-54
2023/07/09 10:45:35;;;;;;;1.65;1.55;;;;;;;;;;5015122;28;20177;-54
2023/07/09 10:48:04;;;;;;;1.73;1.63;;;;;;;;;;5013265;28;20205;-54
2023/07/09 10:50:33;;;;;;;1.50;1.40;;;;;;;;;;5015528;28;20184;-54
2023/07/09 10:53:07;;;;;;;1.60;1.50;;;;;;;;;;5015110;28;20169;-54
2023/07/09 10:55:39;;;;;;;1.38;1.27;;;;;;;;;;5014886;28;20195;-54
2023/07/09 10:58:06;;;;;;;1.35;1.25;;;;;;;;;;5014627;28;20196;-54
2023/07/09 11:00:41;;;;;;;1.13;1.13;;;;;;;;;;5014633;28;20194;-54
2023/07/09 11:03:22;;;;;;;1.60;1.50;;;;;;;;;;5015080;28;20663;-54
2023/07/09 11:05:49;;;;;;;1.50;1.40;;;;;;;;;;5014177;28;20199;-54
2023/07/09 11:08:25;;;;;;;1.40;1.30;;;;;;;;;;5014705;28;20575;-54
2023/07/09 11:10:56;;;;;;;1.30;1.20;;;;;;;;;;5015140;28;20570;-54
2023/07/09 11:13:39;;;;;;;1.60;1.40;;;;;;;;;;5015000;28;20183;-54
2023/07/09 11:16:05;;;;;;;1.58;1.48;;;;;;;;;;5014872;28;20188;-54
2023/07/09 11:18:33;;;;;;;1.50;1.40;;;;;;;;;;5014742;28;20448;-54
2023/07/09 11:21:07;;;;;;;1.73;1.50;;;;;;;;;;5014867;28;20207;-54
2023/07/09 11:23:44;;;;;;;1.13;1.02;;;;;;;;;;5014784;28;20196;-54
2023/07/09 11:26:13;;;;;;;1.42;1.33;;;;;;;;;;5014338;28;20179;-54
2023/07/09 11:28:39;;;;;;;1.40;1.30;;;;;;;;;;5014528;28;20283;-54
2023/07/09 11:31:07;;;;;;;1.40;1.30;;;;;;;;;;5014918;28;20326;-54
2023/07/09 11:33:33;;;;;;;1.40;1.30;;;;;;;;;;5014903;28;20703;-54
2023/07/09 11:36:10;;;;;;;1.42;1.33;;;;;;;;;;5014433;28;20172;-54
2023/07/09 11:38:47;;;;;;;1.25;1.15;;;;;;;;;;5012914;28;20188;-54
2023/07/09 11:41:31;;;;;;;1.40;1.30;;;;;;;;;;5011102;28;20239;-54
2023/07/09 11:44:09;;;;;;;1.27;1.17;;;;;;;;;;5014542;28;20191;-54
2023/07/09 11:46:37;;;;;;;1.40;1.30;;;;;;;;;;5013440;28;20242;-54
2023/07/09 11:49:04;;;;;;;1.50;1.40;;;;;;;;;;5014395;28;20212;-54
2023/07/09 11:51:37;;;;;;;1.40;1.30;;;;;;;;;;5014315;28;20176;-54
2023/07/09 11:54:03;;;;;;;1.40;1.30;;;;;;;;;;5014176;28;20533;-54
2023/07/09 11:56:29;;;;;;;1.38;1.27;;;;;;;;;;5013676;28;20184;-54
2023/07/09 11:58:56;;;;;;;1.45;1.35;;;;;;;;;;5013872;28;20191;-54
2023/07/09 12:01:32;;;;;;;1.50;1.40;;;;;;;;;;5014412;28;20867;-54
2023/07/09 12:03:58;;;;;;;1.40;1.30;;;;;;;;;;4996980;28;20271;-54
2023/07/09 12:06:29;;;;;;;1.35;1.25;;;;;;;;;;5014341;28;20195;-54
2023/07/09 12:08:56;;;;;;;1.30;1.20;;;;;;;;;;5013758;28;20726;-54
2023/07/09 12:11:32;;;;;;;0.90;0.90;;;;;;;;;;5014345;28;20280;-54
2023/07/09 12:14:11;;;;;;;1.20;1.10;;;;;;;;;;5018147;28;20218;-54
2023/07/09 12:16:42;;;;;;;1.30;1.20;;;;;;;;;;5017857;28;20199;-54
2023/07/09 12:19:12;;;;;;;1.13;1.08;;;;;;;;;;5017912;28;20180;-54
2023/07/09 12:21:38;;;;;;;1.50;1.23;;;;;;;;;;5000813;28;20275;-54
2023/07/09 12:24:14;;;;;;;1.20;1.10;;;;;;;;;;5017447;28;20563;-54
2023/07/09 12:26:41;;;;;;;1.40;1.30;;;;;;;;;;5017855;28;20184;-55
2023/07/09 12:29:10;;;;;;;1.10;1.00;;;;;;;;;;5017611;28;20232;-54
2023/07/09 12:31:36;;;;;;;1.15;1.15;;;;;;;;;;5017826;28;20192;-54
2023/07/09 12:34:01;;;;;;;1.42;1.30;;;;;;;;;;5018453;28;20426;-54
2023/07/09 12:36:28;;;;;;;1.30;1.20;;;;;;;;;;5017401;28;20181;-54
2023/07/09 12:38:57;;;;;;;1.27;1.20;;;;;;;;;;5016680;28;20255;-54
2023/07/09 12:41:28;;;;;;;1.08;1.00;;;;;;;;;;5017742;28;20187;-54
2023/07/09 12:43:55;;;;;;;1.17;1.10;;;;;;;;;;5016954;28;20475;-54
2023/07/09 12:46:21;;;;;;;1.30;1.20;;;;;;;;;;5016714;28;20187;-54
2023/07/09 12:48:48;;;;;;;1.20;1.10;;;;;;;;;;5016475;28;20201;-54
2023/07/09 12:51:16;;;;;;;1.27;1.17;;;;;;;;;;5017871;28;20177;-54
2023/07/09 12:53:42;;;;;;;1.20;1.15;;;;;;;;;;5017311;28;20185;-54
2023/07/09 12:56:12;;;;;;;1.45;1.35;;;;;;;;;;5017133;28;20792;-54
2023/07/09 12:58:38;;;;;;;1.30;1.20;;;;;;;;;;5017032;28;20250;-54
2023/07/09 13:01:15;;;;;;;1.40;1.30;;;;;;;;;;5017176;28;20212;-54
2023/07/09 13:03:41;;;;;;;1.13;1.10;;;;;;;;;;4995678;28;20196;-54
2023/07/09 13:06:24;;;;;;;1.38;1.27;;;;;;;;;;5017475;28;20524;-54
2023/07/09 13:08:55;;;;;;;1.30;1.20;;;;;;;;;;5017021;28;20218;-54
2023/07/09 13:11:21;;;;;;;1.23;1.13;;;;;;;;;;5017825;28;20176;-54
2023/07/09 13:14:02;;;;;;;1.45;1.35;;;;;;;;;;5017012;28;20187;-54
2023/07/09 13:16:28;;;;;;;1.02;1.02;;;;;;;;;;5017307;28;20205;-55
2023/07/09 13:18:54;;;;;;;1.30;1.20;;;;;;;;;;5016436;28;20548;-54
2023/07/09 13:21:20;;;;;;;1.13;1.02;;;;;;;;;;5016975;28;20552;-54
2023/07/09 13:23:47;;;;;;;1.15;1.05;;;;;;;;;;5016802;28;20203;-54
2023/07/09 13:26:13;;;;;;;1.50;1.40;;;;;;;;;;4999807;28;20268;-54
2023/07/09 13:28:39;;;;;;;1.08;1.08;;;;;;;;;;5016492;28;20207;-54
2023/07/09 13:31:11;;;;;;;1.35;1.25;;;;;;;;;;5017192;28;20173;-54
2023/07/09 13:33:38;;;;;;;1.00;1.00;;;;;;;;;;5016930;28;20198;-54
2023/07/09 13:36:04;;;;;;;1.13;1.10;;;;;;;;;;5016558;28;20200;-54
2023/07/09 13:38:30;;;;;;;1.20;1.10;;;;;;;;;;5015235;28;20224;-54
2023/07/09 13:40:58;;;;;;;1.20;1.20;;;;;;;;;;5016836;28;20744;-54
2023/07/09 13:43:29;;;;;;;1.13;1.10;;;;;;;;;;5016807;28;20263;-54
2023/07/09 13:45:56;;;;;;;1.08;1.00;;;;;;;;;;5016674;28;20583;-54
2023/07/09 13:48:22;;;;;;;1.38;1.20;;;;;;;;;;5015830;28;20215;-54
2023/07/09 13:50:50;;;;;;;1.67;1.58;;;;;;;;;;5016503;28;20219;-54
2023/07/09 13:53:19;;;;;;;1.13;1.02;;;;;;;;;;5016306;28;20180;-54
2023/07/09 13:55:46;;;;;;;1.10;1.00;;;;;;;;;;4998836;28;20192;-54
2023/07/09 13:58:13;;;;;;;1.13;1.08;;;;;;;;;;5016086;28;20234;-54
2023/07/09 14:00:40;;;;;;;1.45;1.35;;;;;;;;;;5016087;28;20480;-54
2023/07/09 14:03:21;;;;;;;1.05;0.95;;;;;;;;;;5016428;28;20208;-54
2023/07/09 14:05:48;;;;;;;1.15;1.10;;;;;;;;;;5016431;28;20192;-54
2023/07/09 14:08:14;;;;;;;0.90;0.90;;;;;;;;;;5015028;28;20208;-54
2023/07/09 14:10:40;;;;;;;1.40;1.30;;;;;;;;;;5016084;28;20191;-55
2023/07/09 14:13:09;;;;;;;1.10;1.00;;;;;;;;;;5016277;28;20583;-55
2023/07/09 14:15:35;;;;;;;1.13;1.02;;;;;;;;;;5016009;28;20184;-55
2023/07/09 14:18:01;;;;;;;1.05;0.98;;;;;;;;;;5014994;28;20540;-55
2023/07/09 14:20:27;;;;;;;1.13;1.02;;;;;;;;;;5015939;28;20188;-55
2023/07/09 14:22:53;;;;;;;1.85;1.38;;;;;;;;;;5015412;28;20203;-55
2023/07/09 14:25:23;;;;;;;1.13;1.05;;;;;;;;;;5015329;28;20188;-55
2023/07/09 14:27:50;;;;;;;1.10;1.00;;;;;;;;;;5013163;28;20452;-54
2023/07/09 14:30:18;;;;;;;0.98;0.95;;;;;;;;;;5015724;28;20228;-54
2023/07/09 14:32:45;;;;;;;0.98;0.98;;;;;;;;;;5015643;28;20191;-54
2023/07/09 14:35:13;;;;;;;0.98;0.98;;;;;;;;;;5015279;28;20194;-54
2023/07/09 14:37:39;;;;;;;1.40;1.30;;;;;;;;;;5015119;28;20184;-54
2023/07/09 14:40:05;;;;;;;1.05;0.95;;;;;;;;;;5014929;28;20182;-54
2023/07/09 14:42:31;;;;;;;1.00;1.00;;;;;;;;;;5015201;28;20248;-55
2023/07/09 14:44:57;;;;;;;1.20;1.10;;;;;;;;;;5015493;28;20301;-55
2023/07/09 14:47:23;;;;;;;1.27;1.17;;;;;;;;;;5015090;28;20204;-55